Time;durP1;ratioP1;P1;durP2;ratioP2;P2;SDS_P1;SDS_P2;PMS_P1;PMS_P2;Temp;Humidity;BMP_temperature;BMP_pressure;BME280_temperature;BME280_humidity;BME280_pressure;Samples;Min_cycle;Max_cycle;Signal;HPM_P1;HPM_P2
2023/04/17 00:00:05;;;;;;;59.70;18.15;;;;;;;;;;5094203;28;20083;-74
2023/04/17 00:02:31;;;;;;;50.72;17.92;;;;;;;;;;5094366;28;20044;-75
2023/04/17 00:04:58;;;;;;;56.72;20.27;;;;;;;;;;5093868;28;20439;-74
2023/04/17 00:07:27;;;;;;;39.83;17.38;;;;;;;;;;5093948;28;20051;-74
2023/04/17 00:09:53;;;;;;;33.90;15.50;;;;;;;;;;5093921;28;20122;-75
2023/04/17 00:12:19;;;;;;;35.55;16.58;;;;;;;;;;5093300;28;20036;-75
2023/04/17 00:14:45;;;;;;;36.58;16.45;;;;;;;;;;5093880;28;20078;-74
2023/04/17 00:17:11;;;;;;;34.28;16.70;;;;;;;;;;5093751;28;20075;-75
2023/04/17 00:19:37;;;;;;;43.00;16.98;;;;;;;;;;5093708;28;20498;-75
2023/04/17 00:22:03;;;;;;;39.20;17.25;;;;;;;;;;5090031;28;20056;-75
2023/04/17 00:24:29;;;;;;;41.75;17.23;;;;;;;;;;5073985;28;20045;-75
2023/04/17 00:26:56;;;;;;;48.83;18.13;;;;;;;;;;5073682;28;20036;-75
2023/04/17 00:29:22;;;;;;;59.75;17.90;;;;;;;;;;5073533;28;20048;-75
2023/04/17 00:31:48;;;;;;;51.95;18.05;;;;;;;;;;5073490;28;20071;-75
2023/04/17 00:34:14;;;;;;;48.00;17.58;;;;;;;;;;5073670;28;20391;-75
2023/04/17 00:36:40;;;;;;;43.05;17.58;;;;;;;;;;5073413;28;20045;-75
2023/04/17 00:39:06;;;;;;;60.28;17.92;;;;;;;;;;5093734;28;20055;-75
2023/04/17 00:41:32;;;;;;;54.03;16.65;;;;;;;;;;5093428;28;20040;-75
2023/04/17 00:43:58;;;;;;;49.40;17.92;;;;;;;;;;5093497;28;20398;-75
2023/04/17 00:46:24;;;;;;;56.67;18.30;;;;;;;;;;5093618;28;20044;-75
2023/04/17 00:48:51;;;;;;;40.78;17.88;;;;;;;;;;5093638;28;20051;-75
2023/04/17 00:51:17;;;;;;;40.72;18.42;;;;;;;;;;5093500;28;20113;-74
2023/04/17 00:53:43;;;;;;;36.97;18.08;;;;;;;;;;5091268;28;20051;-75
2023/04/17 00:56:09;;;;;;;40.25;18.83;;;;;;;;;;5092346;28;20052;-74
2023/04/17 00:58:36;;;;;;;53.90;19.02;;;;;;;;;;5097569;28;20082;-74
2023/04/17 01:01:03;;;;;;;48.30;18.75;;;;;;;;;;5097289;28;20044;-74
2023/04/17 01:03:31;;;;;;;58.92;19.65;;;;;;;;;;5097384;28;20044;-74
2023/04/17 01:05:57;;;;;;;44.15;17.67;;;;;;;;;;5097603;28;20049;-74
2023/04/17 01:08:24;;;;;;;44.53;19.52;;;;;;;;;;5094175;28;20382;-74
2023/04/17 01:10:50;;;;;;;40.38;18.45;;;;;;;;;;5088456;28;20044;-74
2023/04/17 01:13:16;;;;;;;48.70;18.63;;;;;;;;;;5091572;28;20063;-74
2023/04/17 01:15:43;;;;;;;51.17;19.10;;;;;;;;;;5081121;28;20040;-74
2023/04/17 01:18:10;;;;;;;48.75;20.05;;;;;;;;;;5096900;28;20054;-74
2023/04/17 01:20:36;;;;;;;39.70;18.42;;;;;;;;;;5085262;28;20504;-74
2023/04/17 01:23:02;;;;;;;45.95;19.20;;;;;;;;;;5076397;28;20097;-74
2023/04/17 01:25:29;;;;;;;41.42;18.08;;;;;;;;;;5076717;28;20046;-74
2023/04/17 01:27:58;;;;;;;43.80;18.63;;;;;;;;;;5094242;28;20044;-74
2023/04/17 01:30:24;;;;;;;50.13;19.75;;;;;;;;;;5097098;28;20491;-74
2023/04/17 01:32:52;;;;;;;44.67;18.10;;;;;;;;;;5096875;28;20048;-74
2023/04/17 01:35:18;;;;;;;40.78;19.00;;;;;;;;;;5080502;28;20039;-73
2023/04/17 01:37:44;;;;;;;43.88;18.80;;;;;;;;;;5076494;28;20482;-75
2023/04/17 01:40:11;;;;;;;42.42;20.05;;;;;;;;;;5074953;28;20052;-74
2023/04/17 01:42:37;;;;;;;42.65;19.17;;;;;;;;;;5078104;28;20107;-74
2023/04/17 01:45:04;;;;;;;43.72;20.30;;;;;;;;;;5075982;28;20475;-74
2023/04/17 01:47:30;;;;;;;41.90;19.23;;;;;;;;;;5089939;28;20044;-74
2023/04/17 01:49:56;;;;;;;40.92;19.55;;;;;;;;;;5094555;28;20047;-75
2023/04/17 01:52:22;;;;;;;45.30;19.55;;;;;;;;;;5096209;28;20036;-74
2023/04/17 01:54:48;;;;;;;63.15;22.52;;;;;;;;;;5096327;28;20039;-74
2023/04/17 01:57:14;;;;;;;61.92;22.38;;;;;;;;;;5096620;28;20044;-75
2023/04/17 01:59:40;;;;;;;67.80;21.23;;;;;;;;;;5096185;28;20390;-75
2023/04/17 02:02:06;;;;;;;52.25;21.35;;;;;;;;;;5096071;28;20044;-75
2023/04/17 02:04:32;;;;;;;62.92;22.25;;;;;;;;;;5094889;28;20078;-75
2023/04/17 02:06:58;;;;;;;57.33;21.10;;;;;;;;;;5095037;28;20048;-75
2023/04/17 02:09:25;;;;;;;45.17;20.65;;;;;;;;;;5095824;28;20150;-75
2023/04/17 02:11:51;;;;;;;46.00;20.45;;;;;;;;;;5095804;28;20509;-75
2023/04/17 02:14:18;;;;;;;45.70;20.27;;;;;;;;;;5100375;28;20044;-75
2023/04/17 02:16:47;;;;;;;60.70;20.88;;;;;;;;;;5100778;28;20048;-75
2023/04/17 02:19:13;;;;;;;65.68;21.83;;;;;;;;;;5096608;28;20128;-75
2023/04/17 02:21:39;;;;;;;87.72;22.15;;;;;;;;;;5094965;28;20048;-75
2023/04/17 02:24:05;;;;;;;61.47;19.70;;;;;;;;;;5075936;28;20040;-75
2023/04/17 02:26:32;;;;;;;104.97;23.60;;;;;;;;;;5075528;28;20080;-75
2023/04/17 02:28:58;;;;;;;78.93;21.70;;;;;;;;;;5075343;28;20048;-74
2023/04/17 02:31:24;;;;;;;69.38;21.92;;;;;;;;;;5075432;28;20470;-74
2023/04/17 02:33:50;;;;;;;46.28;19.50;;;;;;;;;;5074480;28;20052;-74
2023/04/17 02:36:16;;;;;;;44.50;20.17;;;;;;;;;;5081278;28;20044;-74
2023/04/17 02:38:42;;;;;;;38.42;18.95;;;;;;;;;;5075583;28;20048;-74
2023/04/17 02:41:09;;;;;;;43.55;21.40;;;;;;;;;;5057658;28;20041;-74
2023/04/17 02:43:35;;;;;;;41.67;19.80;;;;;;;;;;5075503;28;20182;-74
2023/04/17 02:46:01;;;;;;;44.22;20.42;;;;;;;;;;5074754;28;20055;-74
2023/04/17 02:48:27;;;;;;;44.40;19.40;;;;;;;;;;5078359;28;20043;-74
2023/04/17 02:50:53;;;;;;;58.00;22.38;;;;;;;;;;5093888;28;20094;-74
2023/04/17 02:53:19;;;;;;;80.10;24.08;;;;;;;;;;5095354;28;20044;-74
2023/04/17 02:55:45;;;;;;;62.53;23.65;;;;;;;;;;5095090;28;20040;-74
2023/04/17 02:58:12;;;;;;;48.30;22.95;;;;;;;;;;5094001;28;20086;-74
2023/04/17 03:00:38;;;;;;;56.78;22.80;;;;;;;;;;5095264;28;20052;-74
2023/04/17 03:03:04;;;;;;;58.70;22.45;;;;;;;;;;5093567;28;20052;-74
2023/04/17 03:05:30;;;;;;;49.72;20.88;;;;;;;;;;5093559;28;20131;-75
2023/04/17 03:07:58;;;;;;;56.83;22.95;;;;;;;;;;5093610;28;20094;-74
2023/04/17 03:10:24;;;;;;;97.75;23.63;;;;;;;;;;5093972;28;20528;-75
2023/04/17 03:12:50;;;;;;;167.00;24.55;;;;;;;;;;5073347;28;20048;-75
2023/04/17 03:15:16;;;;;;;179.43;25.85;;;;;;;;;;5075858;28;20044;-75
2023/04/17 03:17:42;;;;;;;121.07;24.55;;;;;;;;;;5093231;28;20119;-75
2023/04/17 03:20:08;;;;;;;112.68;25.65;;;;;;;;;;5092672;28;20060;-75
2023/04/17 03:22:35;;;;;;;67.70;23.42;;;;;;;;;;5086461;28;20079;-75
2023/04/17 03:25:01;;;;;;;90.63;21.67;;;;;;;;;;5074442;28;20091;-75
2023/04/17 03:27:27;;;;;;;77.28;23.00;;;;;;;;;;5074096;28;20048;-74
2023/04/17 03:29:55;;;;;;;60.88;21.63;;;;;;;;;;5073844;28;20048;-74
2023/04/17 03:32:21;;;;;;;99.35;23.60;;;;;;;;;;5073826;28;20044;-75
2023/04/17 03:34:47;;;;;;;125.03;23.42;;;;;;;;;;5073125;28;20040;-74
2023/04/17 03:37:13;;;;;;;119.30;22.75;;;;;;;;;;5074038;28;20052;-75
2023/04/17 03:39:39;;;;;;;80.22;19.88;;;;;;;;;;5073172;28;20046;-75
2023/04/17 03:42:06;;;;;;;45.25;18.70;;;;;;;;;;5074347;28;20124;-74
2023/04/17 03:44:32;;;;;;;174.55;24.85;;;;;;;;;;5090322;28;20105;-75
2023/04/17 03:46:58;;;;;;;186.25;25.33;;;;;;;;;;5094034;28;20044;-75
2023/04/17 03:49:24;;;;;;;192.65;24.25;;;;;;;;;;5094217;28;20040;-74
2023/04/17 03:51:50;;;;;;;178.38;24.58;;;;;;;;;;5088217;28;20054;-74
2023/04/17 03:54:16;;;;;;;208.15;26.25;;;;;;;;;;5072501;28;20056;-75
2023/04/17 03:56:42;;;;;;;103.70;22.17;;;;;;;;;;5072352;28;20502;-75
2023/04/17 03:59:09;;;;;;;140.35;25.85;;;;;;;;;;5072173;28;20517;-75
2023/04/17 04:01:37;;;;;;;65.97;21.15;;;;;;;;;;5073688;28;20430;-75
2023/04/17 04:04:04;;;;;;;58.78;21.98;;;;;;;;;;5072387;28;20048;-75
2023/04/17 04:06:30;;;;;;;130.40;26.35;;;;;;;;;;5073902;28;20119;-74
2023/04/17 04:08:56;;;;;;;78.55;23.17;;;;;;;;;;5072032;28;20435;-74
2023/04/17 04:11:22;;;;;;;63.70;23.73;;;;;;;;;;5080699;28;20123;-74
2023/04/17 04:13:48;;;;;;;65.93;22.98;;;;;;;;;;5077760;28;20062;-74
2023/04/17 04:16:15;;;;;;;150.43;26.77;;;;;;;;;;5073440;28;20048;-74
2023/04/17 04:18:42;;;;;;;211.05;29.33;;;;;;;;;;5073666;28;20055;-74
2023/04/17 04:21:09;;;;;;;166.55;26.88;;;;;;;;;;5073792;28;20494;-74
2023/04/17 04:23:38;;;;;;;206.95;30.77;;;;;;;;;;5090151;28;20444;-74
2023/04/17 04:26:04;;;;;;;96.32;24.48;;;;;;;;;;5093619;28;20513;-75
2023/04/17 04:28:30;;;;;;;195.68;29.08;;;;;;;;;;5092554;28;20066;-75
2023/04/17 04:30:57;;;;;;;166.80;26.48;;;;;;;;;;5095255;28;20070;-74
2023/04/17 04:33:24;;;;;;;148.43;24.35;;;;;;;;;;5097819;28;20093;-74
2023/04/17 04:35:50;;;;;;;180.80;26.58;;;;;;;;;;5098050;28;20052;-74
2023/04/17 04:38:16;;;;;;;249.75;28.80;;;;;;;;;;5097902;28;20122;-74
2023/04/17 04:40:50;;;;;;;232.95;29.35;;;;;;;;;;5095089;28;20056;-75
2023/04/17 04:43:17;;;;;;;269.42;28.60;;;;;;;;;;5077310;28;20487;-75
2023/04/17 04:45:43;;;;;;;258.00;29.45;;;;;;;;;;5077067;28;20037;-75
2023/04/17 04:48:09;;;;;;;220.02;27.48;;;;;;;;;;5076017;28;20084;-75
2023/04/17 04:50:35;;;;;;;146.65;22.75;;;;;;;;;;5077644;28;20051;-74
2023/04/17 04:53:01;;;;;;;153.50;24.65;;;;;;;;;;5077157;28;20041;-75
2023/04/17 04:55:29;;;;;;;186.77;26.52;;;;;;;;;;5077375;28;20132;-75
2023/04/17 04:57:56;;;;;;;157.15;25.17;;;;;;;;;;5077234;28;20052;-75
2023/04/17 05:00:22;;;;;;;274.88;33.97;;;;;;;;;;5087768;28;20126;-75
2023/04/17 05:02:48;;;;;;;257.55;31.52;;;;;;;;;;5095670;28;20059;-75
2023/04/17 05:05:14;;;;;;;175.20;28.35;;;;;;;;;;5095831;28;20381;-75
2023/04/17 05:07:40;;;;;;;264.05;29.65;;;;;;;;;;5096910;28;20508;-75
2023/04/17 05:10:07;;;;;;;103.18;23.15;;;;;;;;;;5095876;28;20043;-75
2023/04/17 05:12:33;;;;;;;167.20;25.58;;;;;;;;;;5095505;28;20394;-75
2023/04/17 05:15:00;;;;;;;148.45;24.75;;;;;;;;;;5091554;28;20131;-75
2023/04/17 05:17:26;;;;;;;141.40;22.85;;;;;;;;;;5080766;28;20044;-74
2023/04/17 05:19:52;;;;;;;147.25;23.45;;;;;;;;;;5080273;28;20175;-75
2023/04/17 05:22:18;;;;;;;133.52;22.10;;;;;;;;;;5076529;28;20044;-75
2023/04/17 05:24:44;;;;;;;109.53;21.65;;;;;;;;;;5076450;28;20090;-75
2023/04/17 05:27:10;;;;;;;94.50;20.65;;;;;;;;;;5075454;28;20041;-75
2023/04/17 05:29:36;;;;;;;116.50;23.38;;;;;;;;;;5086063;28;20050;-74
2023/04/17 05:32:02;;;;;;;91.60;20.13;;;;;;;;;;5078676;28;20040;-74
2023/04/17 05:34:28;;;;;;;139.82;23.67;;;;;;;;;;5096491;28;20097;-74
2023/04/17 05:36:54;;;;;;;96.50;23.08;;;;;;;;;;5095069;28;20044;-74
2023/04/17 05:39:20;;;;;;;64.80;20.20;;;;;;;;;;5096388;28;20151;-74
2023/04/17 05:41:46;;;;;;;87.15;20.30;;;;;;;;;;5084718;28;20044;-74
2023/04/17 05:44:12;;;;;;;95.78;19.80;;;;;;;;;;5074648;28;20135;-74
2023/04/17 05:46:38;;;;;;;67.82;19.00;;;;;;;;;;5075465;28;20055;-74
2023/04/17 05:49:05;;;;;;;70.80;20.02;;;;;;;;;;5074484;28;20070;-74
2023/04/17 05:51:31;;;;;;;98.30;21.23;;;;;;;;;;5091698;28;20395;-74
2023/04/17 05:53:57;;;;;;;87.28;21.75;;;;;;;;;;5096244;28;20043;-74
2023/04/17 05:56:23;;;;;;;126.47;23.35;;;;;;;;;;5096064;28;20040;-74
2023/04/17 05:58:49;;;;;;;96.80;21.80;;;;;;;;;;5090202;28;20181;-74
2023/04/17 06:01:17;;;;;;;82.35;22.38;;;;;;;;;;5084080;28;20425;-74
2023/04/17 06:03:43;;;;;;;62.22;20.20;;;;;;;;;;5090476;28;20123;-74
2023/04/17 06:06:09;;;;;;;58.17;20.38;;;;;;;;;;5074918;28;20062;-74
2023/04/17 06:08:35;;;;;;;67.35;21.67;;;;;;;;;;5074022;28;20044;-74
2023/04/17 06:11:01;;;;;;;66.72;21.33;;;;;;;;;;5072937;28;20411;-74
2023/04/17 06:13:27;;;;;;;75.68;19.50;;;;;;;;;;5074097;28;20357;-76
2023/04/17 06:15:54;;;;;;;71.57;19.35;;;;;;;;;;5072897;28;20074;-74
2023/04/17 06:18:20;;;;;;;80.47;21.70;;;;;;;;;;5073829;28;20139;-74
2023/04/17 06:20:46;;;;;;;62.88;20.42;;;;;;;;;;5089638;28;20079;-74
2023/04/17 06:23:12;;;;;;;88.28;22.52;;;;;;;;;;5094123;28;20050;-74
2023/04/17 06:25:38;;;;;;;53.90;18.90;;;;;;;;;;5094524;28;20044;-74
2023/04/17 06:28:04;;;;;;;58.88;19.33;;;;;;;;;;5095866;28;20090;-74
2023/04/17 06:30:30;;;;;;;53.17;20.42;;;;;;;;;;5094261;28;20079;-74
2023/04/17 06:32:56;;;;;;;57.17;19.05;;;;;;;;;;5094011;28;20040;-74
2023/04/17 06:35:23;;;;;;;54.78;20.85;;;;;;;;;;5093972;28;20416;-74
2023/04/17 06:37:49;;;;;;;54.70;19.30;;;;;;;;;;5095200;28;20040;-74
2023/04/17 06:40:15;;;;;;;60.45;19.45;;;;;;;;;;5092851;28;20115;-74
2023/04/17 06:42:41;;;;;;;43.50;19.17;;;;;;;;;;5078275;28;20050;-74
2023/04/17 06:45:07;;;;;;;41.08;18.45;;;;;;;;;;5075023;28;20173;-74
2023/04/17 06:47:33;;;;;;;47.83;18.17;;;;;;;;;;5074988;28;20045;-74
2023/04/17 06:49:59;;;;;;;47.30;18.63;;;;;;;;;;5073326;28;20044;-74
2023/04/17 06:52:25;;;;;;;52.33;19.17;;;;;;;;;;5079853;28;20119;-74
2023/04/17 06:54:55;;;;;;;44.22;16.67;;;;;;;;;;5087014;28;20051;-75
2023/04/17 06:57:21;;;;;;;40.78;18.42;;;;;;;;;;5076737;28;20101;-75
2023/04/17 06:59:47;;;;;;;42.55;16.92;;;;;;;;;;5086446;28;20089;-75
2023/04/17 07:02:13;;;;;;;39.70;17.00;;;;;;;;;;5092600;28;20056;-74
2023/04/17 07:04:39;;;;;;;32.58;15.65;;;;;;;;;;5078700;28;20403;-74
2023/04/17 07:07:05;;;;;;;28.05;14.60;;;;;;;;;;5075043;28;20127;-74
2023/04/17 07:09:32;;;;;;;30.90;15.10;;;;;;;;;;5073256;28;20740;-74
2023/04/17 07:11:58;;;;;;;30.13;16.00;;;;;;;;;;5085364;28;20066;-74
2023/04/17 07:14:24;;;;;;;31.48;17.10;;;;;;;;;;5093495;28;20055;-74
2023/04/17 07:16:50;;;;;;;33.10;16.20;;;;;;;;;;5093561;28;20130;-74
2023/04/17 07:19:16;;;;;;;30.08;16.30;;;;;;;;;;5093040;28;20466;-74
2023/04/17 07:21:42;;;;;;;31.08;16.33;;;;;;;;;;5092997;28;20100;-74
2023/04/17 07:24:08;;;;;;;38.35;17.52;;;;;;;;;;5092990;28;20123;-74
2023/04/17 07:26:36;;;;;;;34.90;18.02;;;;;;;;;;5093405;28;20075;-75
2023/04/17 07:29:02;;;;;;;29.55;16.70;;;;;;;;;;5093397;28;20165;-75
2023/04/17 07:31:28;;;;;;;31.08;16.27;;;;;;;;;;5094196;28;20040;-75
2023/04/17 07:33:54;;;;;;;40.30;19.85;;;;;;;;;;5093961;28;20048;-75
2023/04/17 07:36:20;;;;;;;45.33;19.65;;;;;;;;;;5094494;28;20052;-75
2023/04/17 07:38:46;;;;;;;39.70;19.58;;;;;;;;;;5094333;28;20048;-75
2023/04/17 07:41:12;;;;;;;42.05;19.65;;;;;;;;;;5092111;28;20077;-74
2023/04/17 07:43:38;;;;;;;40.10;19.85;;;;;;;;;;5092483;28;20382;-75
2023/04/17 07:46:04;;;;;;;41.80;19.75;;;;;;;;;;5092675;28;20047;-75
2023/04/17 07:48:31;;;;;;;44.92;20.30;;;;;;;;;;5092604;28;20105;-75
2023/04/17 07:51:00;;;;;;;40.30;19.90;;;;;;;;;;5093194;28;20043;-78
2023/04/17 07:53:27;;;;;;;31.23;17.45;;;;;;;;;;5079801;28;20052;-75
2023/04/17 07:55:53;;;;;;;29.30;16.40;;;;;;;;;;5073752;28;20056;-76
2023/04/17 07:58:19;;;;;;;31.85;16.63;;;;;;;;;;5073124;28;20040;-77
2023/04/17 08:00:46;;;;;;;29.77;16.08;;;;;;;;;;5073673;28;20361;-75
2023/04/17 08:03:14;;;;;;;29.77;15.30;;;;;;;;;;5073529;28;20047;-75
2023/04/17 08:05:41;;;;;;;25.58;14.50;;;;;;;;;;5072614;28;20052;-75
2023/04/17 08:08:07;;;;;;;24.27;14.20;;;;;;;;;;5073766;28;20048;-75
2023/04/17 08:10:33;;;;;;;24.27;14.18;;;;;;;;;;5072463;28;20048;-75
2023/04/17 08:13:00;;;;;;;26.92;15.15;;;;;;;;;;5076664;28;20510;-79
2023/04/17 08:15:26;;;;;;;25.65;14.85;;;;;;;;;;5073396;28;20045;-75
2023/04/17 08:17:52;;;;;;;31.40;15.48;;;;;;;;;;5088151;28;20048;-75
2023/04/17 08:20:18;;;;;;;28.90;16.45;;;;;;;;;;5091880;28;20048;-75
2023/04/17 08:22:45;;;;;;;25.23;15.15;;;;;;;;;;5080315;28;20048;-75
2023/04/17 08:25:12;;;;;;;25.15;14.85;;;;;;;;;;5092114;28;20047;-75
2023/04/17 08:27:39;;;;;;;26.83;15.23;;;;;;;;;;5088764;28;20041;-75
2023/04/17 08:30:05;;;;;;;26.40;15.45;;;;;;;;;;5087429;28;20052;-75
2023/04/17 08:32:39;;;;;;;25.75;14.25;;;;;;;;;;5090439;28;20040;-75
2023/04/17 08:35:06;;;;;;;25.85;14.13;;;;;;;;;;5076771;28;20045;-75
2023/04/17 08:37:33;;;;;;;26.05;14.98;;;;;;;;;;5078258;28;20044;-75
2023/04/17 08:40:00;;;;;;;22.05;14.23;;;;;;;;;;5082106;28;20052;-75
2023/04/17 08:42:27;;;;;;;25.35;15.43;;;;;;;;;;5087978;28;20101;-75
2023/04/17 08:44:57;;;;;;;26.48;15.63;;;;;;;;;;5092813;28;20040;-75
2023/04/17 08:47:23;;;;;;;22.17;14.75;;;;;;;;;;5072913;28;20462;-75
2023/04/17 08:49:49;;;;;;;24.65;16.58;;;;;;;;;;5088607;28;20422;-75
2023/04/17 08:52:15;;;;;;;25.42;16.98;;;;;;;;;;5093481;28;20119;-75
2023/04/17 08:54:41;;;;;;;26.30;17.13;;;;;;;;;;5092029;28;20382;-75
2023/04/17 08:57:07;;;;;;;29.58;17.33;;;;;;;;;;5093209;28;20538;-75
2023/04/17 08:59:36;;;;;;;22.23;14.65;;;;;;;;;;5091821;28;20493;-75
2023/04/17 09:02:02;;;;;;;19.75;12.90;;;;;;;;;;5092897;28;20044;-75
2023/04/17 09:04:38;;;;;;;21.90;14.07;;;;;;;;;;5084641;28;20552;-75
2023/04/17 09:07:04;;;;;;;21.73;13.48;;;;;;;;;;5087100;28;20036;-75
2023/04/17 09:09:46;;;;;;;22.88;14.35;;;;;;;;;;5092443;28;20043;-75
2023/04/17 09:12:12;;;;;;;19.90;12.95;;;;;;;;;;5077083;28;20515;-74
2023/04/17 09:14:38;;;;;;;20.85;13.68;;;;;;;;;;5081245;28;20565;-74
2023/04/17 09:17:04;;;;;;;21.23;14.30;;;;;;;;;;5089471;28;20052;-74
2023/04/17 09:19:30;;;;;;;21.58;14.15;;;;;;;;;;5090452;28;20398;-74
2023/04/17 09:21:56;;;;;;;21.90;13.77;;;;;;;;;;5095174;28;20458;-74
2023/04/17 09:24:33;;;;;;;19.52;13.80;;;;;;;;;;5096290;28;20466;-75
2023/04/17 09:27:22;;;;;;;21.25;14.65;;;;;;;;;;5096584;28;20146;-75
2023/04/17 09:30:15;;;;;;;19.38;12.95;;;;;;;;;;5080922;28;20055;-75
2023/04/17 09:32:41;;;;;;;18.83;12.95;;;;;;;;;;5092176;28;20044;-75
2023/04/17 09:35:07;;;;;;;20.00;13.43;;;;;;;;;;5082425;28;20352;-75
2023/04/17 09:37:50;;;;;;;18.67;12.98;;;;;;;;;;5085784;28;20554;-75
2023/04/17 09:40:19;;;;;;;18.85;13.23;;;;;;;;;;5095940;28;20402;-75
2023/04/17 09:42:58;;;;;;;17.60;13.02;;;;;;;;;;5094828;28;20097;-75
2023/04/17 09:45:25;;;;;;;19.85;12.57;;;;;;;;;;5084308;28;20538;-75
2023/04/17 09:47:54;;;;;;;14.40;11.35;;;;;;;;;;5094873;28;20040;-75
2023/04/17 09:50:21;;;;;;;18.40;12.15;;;;;;;;;;5094757;28;20555;-75
2023/04/17 09:52:51;;;;;;;19.10;13.63;;;;;;;;;;5082155;28;20387;-75
2023/04/17 09:55:20;;;;;;;17.75;12.50;;;;;;;;;;5095643;28;20047;-75
2023/04/17 09:57:48;;;;;;;17.80;13.35;;;;;;;;;;5095944;28;20040;-75
2023/04/17 10:00:16;;;;;;;19.40;12.65;;;;;;;;;;5090249;28;20124;-75
2023/04/17 10:02:42;;;;;;;16.30;12.30;;;;;;;;;;5082003;28;20067;-75
2023/04/17 10:05:10;;;;;;;18.42;13.27;;;;;;;;;;5094946;28;20085;-75
2023/04/17 10:07:37;;;;;;;17.83;12.82;;;;;;;;;;5094073;28;20423;-75
2023/04/17 10:10:08;;;;;;;17.95;12.80;;;;;;;;;;5094423;28;20466;-75
2023/04/17 10:12:37;;;;;;;18.10;12.30;;;;;;;;;;5091443;28;20059;-75
2023/04/17 10:15:06;;;;;;;17.52;13.30;;;;;;;;;;5087500;28;20052;-75
2023/04/17 10:17:33;;;;;;;20.13;12.60;;;;;;;;;;5094974;28;20043;-75
2023/04/17 10:20:16;;;;;;;19.67;13.38;;;;;;;;;;5095663;28;20056;-75
2023/04/17 10:22:42;;;;;;;17.10;12.35;;;;;;;;;;5083106;28;20510;-75
2023/04/17 10:25:11;;;;;;;18.40;13.25;;;;;;;;;;5095209;28;20036;-75
2023/04/17 10:27:48;;;;;;;20.50;13.48;;;;;;;;;;5085448;28;20076;-75
2023/04/17 10:30:15;;;;;;;20.30;14.82;;;;;;;;;;5095125;28;20501;-75
2023/04/17 10:33:04;;;;;;;21.30;14.32;;;;;;;;;;5091717;28;20036;-75
2023/04/17 10:35:34;;;;;;;21.20;14.02;;;;;;;;;;5081335;28;20139;-75
2023/04/17 10:38:04;;;;;;;21.05;14.80;;;;;;;;;;5095308;28;20048;-74
2023/04/17 10:40:32;;;;;;;21.80;14.10;;;;;;;;;;5096215;28;20048;-77
2023/04/17 10:43:10;;;;;;;18.50;13.50;;;;;;;;;;5097300;28;20044;-76
2023/04/17 10:45:55;;;;;;;20.02;13.68;;;;;;;;;;5093846;28;20052;-75
2023/04/17 10:48:27;;;;;;;18.10;12.52;;;;;;;;;;5080558;28;20067;-77
2023/04/17 10:50:53;;;;;;;19.65;14.10;;;;;;;;;;5094658;28;20123;-75
2023/04/17 10:53:39;;;;;;;16.55;11.50;;;;;;;;;;5087428;28;20044;-78
2023/04/17 10:56:05;;;;;;;19.63;13.07;;;;;;;;;;5091982;28;20052;-77
2023/04/17 10:58:31;;;;;;;19.58;13.63;;;;;;;;;;5097543;28;20040;-82
2023/04/17 11:01:01;;;;;;;18.40;13.82;;;;;;;;;;5098368;28;20040;-76
2023/04/17 11:03:27;;;;;;;17.35;13.35;;;;;;;;;;5095195;28;20051;-77
2023/04/17 11:05:53;;;;;;;20.50;14.38;;;;;;;;;;5095198;28;20071;-76
2023/04/17 11:08:20;;;;;;;19.63;14.10;;;;;;;;;;5090874;28;20054;-76
2023/04/17 11:10:46;;;;;;;21.55;14.85;;;;;;;;;;5084013;28;20094;-75
2023/04/17 11:13:12;;;;;;;19.63;14.02;;;;;;;;;;5090701;28;20040;-75
2023/04/17 11:15:38;;;;;;;20.38;14.25;;;;;;;;;;5090044;28;20109;-76
2023/04/17 11:18:04;;;;;;;20.73;14.48;;;;;;;;;;5095232;28;20425;-75
2023/04/17 11:20:31;;;;;;;21.08;14.98;;;;;;;;;;5081681;28;20093;-75
2023/04/17 11:23:01;;;;;;;22.20;15.80;;;;;;;;;;5083877;28;20429;-75
2023/04/17 11:25:30;;;;;;;23.85;15.75;;;;;;;;;;5093181;28;20036;-75
2023/04/17 11:27:56;;;;;;;20.38;15.55;;;;;;;;;;5088410;28;20060;-75
2023/04/17 11:30:24;;;;;;;22.67;15.02;;;;;;;;;;5095531;28;20032;-75
2023/04/17 11:32:51;;;;;;;22.85;15.48;;;;;;;;;;5084437;28;20049;-76
2023/04/17 11:35:17;;;;;;;22.33;16.23;;;;;;;;;;5092661;28;20359;-76
2023/04/17 11:38:02;;;;;;;22.17;15.27;;;;;;;;;;5095010;28;20055;-75
2023/04/17 11:40:29;;;;;;;23.88;16.73;;;;;;;;;;5078397;28;20040;-75
2023/04/17 11:42:55;;;;;;;22.88;16.38;;;;;;;;;;5088239;28;20052;-76
2023/04/17 11:45:21;;;;;;;24.48;16.77;;;;;;;;;;5083808;28;20058;-76
2023/04/17 11:47:47;;;;;;;20.33;14.23;;;;;;;;;;5094265;28;20047;-75
2023/04/17 11:50:16;;;;;;;24.50;16.52;;;;;;;;;;5091782;28;20123;-76
2023/04/17 11:52:42;;;;;;;24.45;16.73;;;;;;;;;;5090748;28;20036;-75
2023/04/17 11:55:09;;;;;;;23.83;15.57;;;;;;;;;;5086997;28;20040;-75
2023/04/17 11:57:44;;;;;;;23.58;15.82;;;;;;;;;;5090395;28;20081;-74
2023/04/17 12:00:13;;;;;;;22.88;15.95;;;;;;;;;;5093900;28;20078;-74
2023/04/17 12:02:40;;;;;;;25.10;15.88;;;;;;;;;;5075882;28;20137;-74
2023/04/17 12:05:18;;;;;;;22.23;15.65;;;;;;;;;;5077548;28;20040;-74
2023/04/17 12:07:44;;;;;;;22.40;15.40;;;;;;;;;;5080642;28;20048;-75
2023/04/17 12:10:10;;;;;;;22.52;16.35;;;;;;;;;;5083488;28;20047;-76
2023/04/17 12:12:36;;;;;;;25.75;17.73;;;;;;;;;;5092399;28;20047;-75
2023/04/17 12:15:03;;;;;;;23.45;15.57;;;;;;;;;;5079962;28;20080;-76
2023/04/17 12:17:29;;;;;;;25.50;15.85;;;;;;;;;;5080493;28;20047;-75
2023/04/17 12:19:55;;;;;;;23.55;16.42;;;;;;;;;;5082988;28;20068;-76
2023/04/17 12:22:22;;;;;;;24.88;16.20;;;;;;;;;;5093504;28;20469;-75
2023/04/17 12:24:48;;;;;;;21.80;15.65;;;;;;;;;;5090624;28;20040;-75
2023/04/17 12:27:14;;;;;;;23.48;16.67;;;;;;;;;;5092032;28;20048;-75
2023/04/17 12:29:40;;;;;;;25.13;17.67;;;;;;;;;;5093497;28;20044;-75
2023/04/17 12:32:06;;;;;;;23.77;17.83;;;;;;;;;;5093146;28;20116;-76
2023/04/17 12:34:32;;;;;;;23.25;17.92;;;;;;;;;;5093724;28;20067;-76
2023/04/17 12:36:58;;;;;;;21.45;16.52;;;;;;;;;;5093424;28;20032;-76
2023/04/17 12:39:24;;;;;;;24.23;17.63;;;;;;;;;;5091773;28;20043;-76
2023/04/17 12:41:50;;;;;;;21.50;16.48;;;;;;;;;;5082895;28;20096;-76
2023/04/17 12:44:16;;;;;;;22.15;17.17;;;;;;;;;;5093226;28;20040;-76
2023/04/17 12:46:42;;;;;;;22.48;18.02;;;;;;;;;;5093594;28;20040;-75
2023/04/17 12:49:08;;;;;;;23.85;17.52;;;;;;;;;;5090703;28;20423;-75
2023/04/17 12:51:36;;;;;;;23.15;17.70;;;;;;;;;;5083587;28;20504;-76
2023/04/17 12:54:02;;;;;;;23.13;16.70;;;;;;;;;;5092308;28;20055;-76
2023/04/17 12:56:28;;;;;;;23.23;18.58;;;;;;;;;;5095262;28;20036;-76
2023/04/17 12:58:54;;;;;;;23.38;17.90;;;;;;;;;;5097033;28;20051;-77
2023/04/17 13:01:21;;;;;;;22.80;17.23;;;;;;;;;;5097139;28;20071;-76
2023/04/17 13:03:47;;;;;;;25.90;17.73;;;;;;;;;;5096242;28;20071;-76
2023/04/17 13:06:15;;;;;;;22.88;17.92;;;;;;;;;;5096634;28;20068;-76
2023/04/17 13:08:41;;;;;;;24.30;17.75;;;;;;;;;;5097092;28;20114;-76
2023/04/17 13:11:07;;;;;;;22.30;17.45;;;;;;;;;;5095924;28;20044;-78
2023/04/17 13:13:34;;;;;;;25.17;17.20;;;;;;;;;;5089794;28;20048;-78
2023/04/17 13:16:00;;;;;;;26.13;17.73;;;;;;;;;;5096856;28;20039;-77
2023/04/17 13:18:26;;;;;;;26.58;18.92;;;;;;;;;;5096758;28;20060;-78
2023/04/17 13:20:52;;;;;;;24.35;18.80;;;;;;;;;;5096694;28;20048;-77
2023/04/17 13:23:18;;;;;;;25.65;18.38;;;;;;;;;;5096951;28;20040;-78
2023/04/17 13:25:44;;;;;;;26.88;18.83;;;;;;;;;;5095868;28;20085;-78
2023/04/17 13:28:10;;;;;;;24.20;17.60;;;;;;;;;;5079240;28;20498;-78
2023/04/17 13:30:36;;;;;;;23.23;17.52;;;;;;;;;;5094538;28;20040;-78
2023/04/17 13:33:02;;;;;;;23.13;17.08;;;;;;;;;;5095683;28;20036;-78
2023/04/17 13:35:28;;;;;;;23.65;18.58;;;;;;;;;;5076434;28;20124;-78
2023/04/17 13:37:56;;;;;;;23.42;17.10;;;;;;;;;;5076863;28;20048;-78
2023/04/17 13:40:22;;;;;;;25.17;18.05;;;;;;;;;;5095926;28;20550;-78
2023/04/17 13:42:48;;;;;;;22.83;17.10;;;;;;;;;;5095987;28;20125;-78
2023/04/17 13:45:14;;;;;;;22.05;16.55;;;;;;;;;;5083579;28;20493;-77
2023/04/17 13:47:41;;;;;;;23.40;17.15;;;;;;;;;;5096142;28;20040;-77
2023/04/17 13:50:07;;;;;;;23.10;16.55;;;;;;;;;;5096465;28;20044;-77
2023/04/17 13:52:33;;;;;;;23.88;17.40;;;;;;;;;;5094362;28;20079;-77
2023/04/17 13:54:59;;;;;;;22.48;17.17;;;;;;;;;;5095775;28;20048;-77
2023/04/17 13:57:25;;;;;;;21.67;16.33;;;;;;;;;;5096093;28;20097;-77
2023/04/17 13:59:51;;;;;;;22.75;16.67;;;;;;;;;;5085947;28;20044;-77
2023/04/17 14:02:17;;;;;;;23.20;16.95;;;;;;;;;;5096070;28;20051;-78
2023/04/17 14:04:43;;;;;;;20.88;16.23;;;;;;;;;;5095800;28;20101;-77
2023/04/17 14:07:11;;;;;;;23.70;17.48;;;;;;;;;;5096039;28;20055;-77
2023/04/17 14:09:37;;;;;;;22.77;16.73;;;;;;;;;;5094712;28;20402;-79
2023/04/17 14:12:03;;;;;;;21.58;16.30;;;;;;;;;;5095675;28;20044;-77
2023/04/17 14:14:30;;;;;;;22.00;16.00;;;;;;;;;;5095756;28;20043;-77